Terminal Aerodrome Forecast
Issued by NWS Wakefield, VA

Home | Current Version | Previous Version | Text Only | Print | Product List | Glossary On
Versions: 1 2 3 4 5 6 7 8 9 10 11 12 13 14 15 16
000
FTUS41 KAKQ 142326
TAFORF
TAF
KORF 142326Z 1500/1524 03012KT P6SM SCT200
     FM151100 05008KT P6SM SCT120
     FM151300 05008KT P6SM BKN070
     FM152100 35008KT P6SM OVC025=

USA.gov is the U.S. government's official web portal to all federal, state and local government web resources and services.